PWSweather.com
Personal Weather Stations
Station Observations
KIDNAMPA57
Canyon County Idaho, Nampa, ID 83687

Canyon County IdahoNampa, ID 83687

Lat: 43.587235, Lon: -116.49831979999999

Elevation: 2615

Station Type: Davis Vantage Pro 2

www.rockinglweather.com

High Low Average
Temperature 54.5°F12.5°C 40.4°F4.7°C 46.1°F7.8°C
Dew Point 43.4°F6.3°C 34.1°F1.2°C 37.8°F3.2°C
Winds 19.0 mph 30.6 kmh Calm Calm 4.0 mph S6.4 kmh S
Wind Gusts 24.0 mph38.6 kmh -- 10.0 mph16.1 kmh
Humidity 91% 52% 74%
Pressure 29.85 in1010.8 mb 29.58 in1001.7 mb -
Precipitation 0.00 in0.0 mm - -
Hour Temp Dew Point Humidity Winds Wind Gusts Pressure Precip Precip Rate Daily Precip Total
12:05 AM 43.3°F6.3°C 40.0°F4.4°C 88% 9.0 mph SE14.5 kmh SE 17.0 mph27.4 kmh 29.81 in1009.5 mb 0.00 in0.0 mm 0.00 in0.0 mm 0.00 in0.0 mm
12:10 AM 43.3°F6.3°C 40.0°F4.4°C 88% 7.0 mph SE11.3 kmh SE 17.0 mph27.4 kmh 29.81 in1009.5 mb 0.00 in0.0 mm 0.00 in0.0 mm 0.00 in0.0 mm
12:15 AM 43.3°F6.3°C 40.0°F4.4°C 88% 10.0 mph SE16.1 kmh SE 17.0 mph27.4 kmh 29.81 in1009.5 mb 0.00 in0.0 mm 0.00 in0.0 mm 0.00 in0.0 mm
12:20 AM 43.3°F6.3°C 39.7°F4.3°C 87% 5.0 mph SE8.0 kmh SE 11.0 mph17.7 kmh 29.80 in1009.1 mb 0.00 in0.0 mm 0.00 in0.0 mm 0.00 in0.0 mm
12:25 AM 43.2°F6.2°C 39.6°F4.2°C 87% 6.0 mph SE9.7 kmh SE 11.0 mph17.7 kmh 29.80 in1009.1 mb 0.00 in0.0 mm 0.00 in0.0 mm 0.00 in0.0 mm
12:30 AM 43.1°F6.2°C 39.5°F4.2°C 87% 4.0 mph SE6.4 kmh SE 11.0 mph17.7 kmh 29.79 in1008.8 mb 0.00 in0.0 mm 0.00 in0.0 mm 0.00 in0.0 mm
12:35 AM 43.0°F6.1°C 39.4°F4.1°C 87% 8.0 mph SE12.9 kmh SE 10.0 mph16.1 kmh 29.79 in1008.8 mb 0.00 in0.0 mm 0.00 in0.0 mm 0.00 in0.0 mm
12:45 AM 42.9°F6.1°C 39.3°F4.1°C 87% 5.0 mph SE8.0 kmh SE 14.0 mph22.5 kmh 29.79 in1008.8 mb 0.00 in0.0 mm 0.00 in0.0 mm 0.00 in0.0 mm
12:55 AM 42.4°F5.8°C 39.1°F3.9°C 88% 6.0 mph SE9.7 kmh SE 7.0 mph11.3 kmh 29.78 in1008.5 mb 0.00 in0.0 mm 0.00 in0.0 mm 0.00 in0.0 mm
01:05 AM 42.1°F5.6°C 38.8°F3.8°C 88% 6.0 mph SE9.7 kmh SE 7.0 mph11.3 kmh 29.77 in1008.1 mb 0.00 in0.0 mm 0.00 in0.0 mm 0.00 in0.0 mm
01:10 AM 42.0°F5.6°C 38.7°F3.7°C 88% 4.0 mph S6.4 kmh S 8.0 mph12.9 kmh 29.77 in1008.1 mb 0.00 in0.0 mm 0.00 in0.0 mm 0.00 in0.0 mm
01:15 AM 41.9°F5.5°C 38.9°F3.8°C 89% 6.0 mph S9.7 kmh S 8.0 mph12.9 kmh 29.77 in1008.1 mb 0.00 in0.0 mm 0.00 in0.0 mm 0.00 in0.0 mm
01:20 AM 41.5°F5.3°C 38.5°F3.6°C 89% 7.0 mph S11.3 kmh S 11.0 mph17.7 kmh 29.76 in1007.8 mb 0.00 in0.0 mm 0.00 in0.0 mm 0.00 in0.0 mm
01:25 AM 41.3°F5.2°C 38.3°F3.5°C 89% 2.0 mph SE3.2 kmh SE 11.0 mph17.7 kmh 29.75 in1007.5 mb 0.00 in0.0 mm 0.00 in0.0 mm 0.00 in0.0 mm
01:30 AM 41.4°F5.2°C 38.7°F3.7°C 90% 8.0 mph SE12.9 kmh SE 12.0 mph19.3 kmh 29.75 in1007.5 mb 0.00 in0.0 mm 0.00 in0.0 mm 0.00 in0.0 mm
01:35 AM 41.6°F5.3°C 38.9°F3.8°C 90% 4.0 mph SE6.4 kmh SE 9.0 mph14.5 kmh 29.74 in1007.1 mb 0.00 in0.0 mm 0.00 in0.0 mm 0.00 in0.0 mm
01:40 AM 41.7°F5.4°C 38.7°F3.7°C 89% 3.0 mph SE4.8 kmh SE 9.0 mph14.5 kmh 29.74 in1007.1 mb 0.00 in0.0 mm 0.00 in0.0 mm 0.00 in0.0 mm
01:45 AM 41.8°F5.4°C 38.8°F3.8°C 89% 6.0 mph SE9.7 kmh SE 14.0 mph22.5 kmh 29.73 in1006.8 mb 0.00 in0.0 mm 0.00 in0.0 mm 0.00 in0.0 mm
01:55 AM 42.0°F5.6°C 39.0°F3.9°C 89% 9.0 mph SE14.5 kmh SE 11.0 mph17.7 kmh 29.72 in1006.4 mb 0.00 in0.0 mm 0.00 in0.0 mm 0.00 in0.0 mm
02:00 AM 42.1°F5.6°C 39.1°F3.9°C 89% 4.0 mph S6.4 kmh S 11.0 mph17.7 kmh 29.72 in1006.4 mb 0.00 in0.0 mm 0.00 in0.0 mm 0.00 in0.0 mm
02:05 AM 42.0°F5.6°C 39.0°F3.9°C 89% 7.0 mph S11.3 kmh S 10.0 mph16.1 kmh 29.72 in1006.4 mb 0.00 in0.0 mm 0.00 in0.0 mm 0.00 in0.0 mm
02:10 AM 41.8°F5.4°C 38.8°F3.8°C 89% 5.0 mph S8.0 kmh S 11.0 mph17.7 kmh 29.72 in1006.4 mb 0.00 in0.0 mm 0.00 in0.0 mm 0.00 in0.0 mm
02:15 AM 41.2°F5.1°C 38.2°F3.4°C 89% 4.0 mph SSE6.4 kmh SSE 11.0 mph17.7 kmh 29.71 in1006.1 mb 0.00 in0.0 mm 0.00 in0.0 mm 0.00 in0.0 mm
02:20 AM 40.7°F4.8°C 38.0°F3.3°C 90% 9.0 mph SSE14.5 kmh SSE 11.0 mph17.7 kmh 29.71 in1006.1 mb 0.00 in0.0 mm 0.00 in0.0 mm 0.00 in0.0 mm
02:25 AM 40.4°F4.7°C 37.7°F3.2°C 90% 4.0 mph SE6.4 kmh SE 11.0 mph17.7 kmh 29.70 in1005.8 mb 0.00 in0.0 mm 0.00 in0.0 mm 0.00 in0.0 mm
02:30 AM 40.4°F4.7°C 38.0°F3.3°C 91% 7.0 mph S11.3 kmh S 11.0 mph17.7 kmh 29.71 in1006.1 mb 0.00 in0.0 mm 0.00 in0.0 mm 0.00 in0.0 mm
02:35 AM 40.7°F4.8°C 38.3°F3.5°C 91% 6.0 mph SE9.7 kmh SE 13.0 mph20.9 kmh 29.71 in1006.1 mb 0.00 in0.0 mm 0.00 in0.0 mm 0.00 in0.0 mm
02:40 AM 41.0°F5.0°C 38.6°F3.7°C 91% 5.0 mph SSE8.0 kmh SSE 13.0 mph20.9 kmh 29.70 in1005.8 mb 0.00 in0.0 mm 0.00 in0.0 mm 0.00 in0.0 mm
02:45 AM 41.2°F5.1°C 38.8°F3.8°C 91% 2.0 mph S3.2 kmh S 13.0 mph20.9 kmh 29.71 in1006.1 mb 0.00 in0.0 mm 0.00 in0.0 mm 0.00 in0.0 mm
02:50 AM 41.3°F5.2°C 38.9°F3.8°C 91% 12.0 mph S19.3 kmh S 16.0 mph25.7 kmh 29.71 in1006.1 mb 0.00 in0.0 mm 0.00 in0.0 mm 0.00 in0.0 mm
02:55 AM 41.4°F5.2°C 38.7°F3.7°C 90% 5.0 mph S8.0 kmh S 16.0 mph25.7 kmh 29.71 in1006.1 mb 0.00 in0.0 mm 0.00 in0.0 mm 0.00 in0.0 mm
03:00 AM 41.5°F5.3°C 38.8°F3.8°C 90% 9.0 mph SSE14.5 kmh SSE 16.0 mph25.7 kmh 29.70 in1005.8 mb 0.00 in0.0 mm 0.00 in0.0 mm 0.00 in0.0 mm
03:05 AM 41.5°F5.3°C 38.8°F3.8°C 90% 6.0 mph SE9.7 kmh SE 14.0 mph22.5 kmh 29.70 in1005.8 mb 0.00 in0.0 mm 0.00 in0.0 mm 0.00 in0.0 mm
03:10 AM 41.5°F5.3°C 38.8°F3.8°C 90% 2.0 mph SSE3.2 kmh SSE 14.0 mph22.5 kmh 29.70 in1005.8 mb 0.00 in0.0 mm 0.00 in0.0 mm 0.00 in0.0 mm
03:15 AM 41.5°F5.3°C 38.8°F3.8°C 90% 4.0 mph S6.4 kmh S 14.0 mph22.5 kmh 29.70 in1005.8 mb 0.00 in0.0 mm 0.00 in0.0 mm 0.00 in0.0 mm
03:20 AM 41.3°F5.2°C 38.6°F3.7°C 90% 2.0 mph SW3.2 kmh SW 6.0 mph9.7 kmh 29.70 in1005.8 mb 0.00 in0.0 mm 0.00 in0.0 mm 0.00 in0.0 mm
03:30 AM 40.8°F4.9°C 38.1°F3.4°C 90% 5.0 mph S8.0 kmh S 12.0 mph19.3 kmh 29.69 in1005.4 mb 0.00 in0.0 mm 0.00 in0.0 mm 0.00 in0.0 mm
03:35 AM 40.8°F4.9°C 38.4°F3.6°C 91% 3.0 mph SE4.8 kmh SE 7.0 mph11.3 kmh 29.68 in1005.1 mb 0.00 in0.0 mm 0.00 in0.0 mm 0.00 in0.0 mm
03:40 AM 41.0°F5.0°C 38.6°F3.7°C 91% 1.0 mph SE1.6 kmh SE 7.0 mph11.3 kmh 29.68 in1005.1 mb 0.00 in0.0 mm 0.00 in0.0 mm 0.00 in0.0 mm
03:45 AM 41.3°F5.2°C 38.9°F3.8°C 91% 3.0 mph SE4.8 kmh SE 8.0 mph12.9 kmh 29.67 in1004.7 mb 0.00 in0.0 mm 0.00 in0.0 mm 0.00 in0.0 mm
03:50 AM 41.9°F5.5°C 39.5°F4.2°C 91% 3.0 mph SE4.8 kmh SE 7.0 mph11.3 kmh 29.67 in1004.7 mb 0.00 in0.0 mm 0.00 in0.0 mm 0.00 in0.0 mm
03:55 AM 42.6°F5.9°C 39.9°F4.4°C 90% 3.0 mph S4.8 kmh S 8.0 mph12.9 kmh 29.67 in1004.7 mb 0.00 in0.0 mm 0.00 in0.0 mm 0.00 in0.0 mm
04:05 AM 43.9°F6.6°C 40.3°F4.6°C 87% 7.0 mph SE11.3 kmh SE 12.0 mph19.3 kmh 29.67 in1004.7 mb 0.00 in0.0 mm 0.00 in0.0 mm 0.00 in0.0 mm
04:15 AM 44.7°F7.1°C 40.5°F4.7°C 85% 11.0 mph SSE17.7 kmh SSE 13.0 mph20.9 kmh 29.67 in1004.7 mb 0.00 in0.0 mm 0.00 in0.0 mm 0.00 in0.0 mm
04:20 AM 44.9°F7.2°C 40.4°F4.7°C 84% 6.0 mph S9.7 kmh S 12.0 mph19.3 kmh 29.67 in1004.7 mb 0.00 in0.0 mm 0.00 in0.0 mm 0.00 in0.0 mm
04:25 AM 45.1°F7.3°C 40.3°F4.6°C 83% 11.0 mph SSE17.7 kmh SSE 12.0 mph19.3 kmh 29.67 in1004.7 mb 0.00 in0.0 mm 0.00 in0.0 mm 0.00 in0.0 mm
04:30 AM 45.1°F7.3°C 40.3°F4.6°C 83% 6.0 mph SW9.7 kmh SW 12.0 mph19.3 kmh 29.67 in1004.7 mb 0.00 in0.0 mm 0.00 in0.0 mm 0.00 in0.0 mm
04:35 AM 45.0°F7.2°C 40.2°F4.6°C 83% 1.0 mph S1.6 kmh S 10.0 mph16.1 kmh 29.66 in1004.4 mb 0.00 in0.0 mm 0.00 in0.0 mm 0.00 in0.0 mm
04:40 AM 45.0°F7.2°C 40.2°F4.6°C 83% 5.0 mph SSE8.0 kmh SSE 15.0 mph24.1 kmh 29.66 in1004.4 mb 0.00 in0.0 mm 0.00 in0.0 mm 0.00 in0.0 mm
04:45 AM 45.1°F7.3°C 40.3°F4.6°C 83% 6.0 mph S9.7 kmh S 15.0 mph24.1 kmh 29.66 in1004.4 mb 0.00 in0.0 mm 0.00 in0.0 mm 0.00 in0.0 mm
04:50 AM 45.1°F7.3°C 40.3°F4.6°C 83% 6.0 mph S9.7 kmh S 10.0 mph16.1 kmh 29.66 in1004.4 mb 0.00 in0.0 mm 0.00 in0.0 mm 0.00 in0.0 mm
04:55 AM 45.0°F7.2°C 40.2°F4.6°C 83% 5.0 mph SSE8.0 kmh SSE 10.0 mph16.1 kmh 29.66 in1004.4 mb 0.00 in0.0 mm 0.00 in0.0 mm 0.00 in0.0 mm
05:00 AM 44.8°F7.1°C 40.0°F4.4°C 83% 3.0 mph S4.8 kmh S 10.0 mph16.1 kmh 29.65 in1004.1 mb 0.00 in0.0 mm 0.00 in0.0 mm 0.00 in0.0 mm
05:05 AM 44.0°F6.7°C 39.5°F4.2°C 84% 3.0 mph S4.8 kmh S 5.0 mph8.0 kmh 29.65 in1004.1 mb 0.00 in0.0 mm 0.00 in0.0 mm 0.00 in0.0 mm
05:10 AM 43.0°F6.1°C 38.8°F3.8°C 85% 1.0 mph SSW1.6 kmh SSW 7.0 mph11.3 kmh 29.65 in1004.1 mb 0.00 in0.0 mm 0.00 in0.0 mm 0.00 in0.0 mm
05:15 AM 43.2°F6.2°C 39.3°F4.1°C 86% 4.0 mph SSE6.4 kmh SSE 7.0 mph11.3 kmh 29.64 in1003.7 mb 0.00 in0.0 mm 0.00 in0.0 mm 0.00 in0.0 mm
05:20 AM 43.4°F6.3°C 39.5°F4.2°C 86% 1.0 mph SSE1.6 kmh SSE 4.0 mph6.4 kmh 29.64 in1003.7 mb 0.00 in0.0 mm 0.00 in0.0 mm 0.00 in0.0 mm
05:25 AM 43.0°F6.1°C 38.8°F3.8°C 85% Calm Calm 4.0 mph6.4 kmh 29.64 in1003.7 mb 0.00 in0.0 mm 0.00 in0.0 mm 0.00 in0.0 mm
05:30 AM 42.8°F6.0°C 39.2°F4.0°C 87% 4.0 mph SSE6.4 kmh SSE 5.0 mph8.0 kmh 29.64 in1003.7 mb 0.00 in0.0 mm 0.00 in0.0 mm 0.00 in0.0 mm
05:35 AM 43.1°F6.2°C 39.5°F4.2°C 87% 3.0 mph SSE4.8 kmh SSE 6.0 mph9.7 kmh 29.64 in1003.7 mb 0.00 in0.0 mm 0.00 in0.0 mm 0.00 in0.0 mm
05:40 AM 43.4°F6.3°C 39.8°F4.3°C 87% 5.0 mph S8.0 kmh S 6.0 mph9.7 kmh 29.64 in1003.7 mb 0.00 in0.0 mm 0.00 in0.0 mm 0.00 in0.0 mm
05:45 AM 43.5°F6.4°C 39.6°F4.2°C 86% 4.0 mph S6.4 kmh S 6.0 mph9.7 kmh 29.63 in1003.4 mb 0.00 in0.0 mm 0.00 in0.0 mm 0.00 in0.0 mm
05:50 AM 43.8°F6.6°C 39.9°F4.4°C 86% 4.0 mph S6.4 kmh S 7.0 mph11.3 kmh 29.63 in1003.4 mb 0.00 in0.0 mm 0.00 in0.0 mm 0.00 in0.0 mm
05:55 AM 44.0°F6.7°C 39.8°F4.3°C 85% 5.0 mph SE8.0 kmh SE 10.0 mph16.1 kmh 29.63 in1003.4 mb 0.00 in0.0 mm 0.00 in0.0 mm 0.00 in0.0 mm
06:00 AM 44.5°F6.9°C 40.0°F4.4°C 84% 3.0 mph SSE4.8 kmh SSE 12.0 mph19.3 kmh 29.63 in1003.4 mb 0.00 in0.0 mm 0.00 in0.0 mm 0.00 in0.0 mm
06:05 AM 44.8°F7.1°C 40.3°F4.6°C 84% 7.0 mph SE11.3 kmh SE 12.0 mph19.3 kmh 29.63 in1003.4 mb 0.00 in0.0 mm 0.00 in0.0 mm 0.00 in0.0 mm
06:10 AM 44.9°F7.2°C 40.1°F4.5°C 83% 5.0 mph SE8.0 kmh SE 12.0 mph19.3 kmh 29.63 in1003.4 mb 0.00 in0.0 mm 0.00 in0.0 mm 0.00 in0.0 mm
06:15 AM 44.9°F7.2°C 40.1°F4.5°C 83% 8.0 mph E12.9 kmh E 13.0 mph20.9 kmh 29.62 in1003.0 mb 0.00 in0.0 mm 0.00 in0.0 mm 0.00 in0.0 mm
06:25 AM 45.0°F7.2°C 40.2°F4.6°C 83% 10.0 mph SE16.1 kmh SE 19.0 mph30.6 kmh 29.60 in1002.4 mb 0.00 in0.0 mm 0.00 in0.0 mm 0.00 in0.0 mm
06:30 AM 45.3°F7.4°C 40.1°F4.5°C 82% 9.0 mph SE14.5 kmh SE 23.0 mph37.0 kmh 29.60 in1002.4 mb 0.00 in0.0 mm 0.00 in0.0 mm 0.00 in0.0 mm
06:35 AM 45.7°F7.6°C 40.2°F4.6°C 81% 7.0 mph SE11.3 kmh SE 22.0 mph35.4 kmh 29.60 in1002.4 mb 0.00 in0.0 mm 0.00 in0.0 mm 0.00 in0.0 mm
06:40 AM 45.9°F7.7°C 40.4°F4.7°C 81% 11.0 mph SE17.7 kmh SE 22.0 mph35.4 kmh 29.60 in1002.4 mb 0.00 in0.0 mm 0.00 in0.0 mm 0.00 in0.0 mm
06:45 AM 46.0°F7.8°C 40.2°F4.6°C 80% 8.0 mph SE12.9 kmh SE 22.0 mph35.4 kmh 29.60 in1002.4 mb 0.00 in0.0 mm 0.00 in0.0 mm 0.00 in0.0 mm
06:50 AM 45.9°F7.7°C 40.1°F4.5°C 80% 7.0 mph SE11.3 kmh SE 14.0 mph22.5 kmh 29.59 in1002.0 mb 0.00 in0.0 mm 0.00 in0.0 mm 0.00 in0.0 mm
06:55 AM 45.8°F7.7°C 40.0°F4.4°C 80% 6.0 mph SSE9.7 kmh SSE 18.0 mph29.0 kmh 29.59 in1002.0 mb 0.00 in0.0 mm 0.00 in0.0 mm 0.00 in0.0 mm
07:00 AM 45.5°F7.5°C 39.7°F4.3°C 80% 5.0 mph SE8.0 kmh SE 22.0 mph35.4 kmh 29.59 in1002.0 mb 0.00 in0.0 mm 0.00 in0.0 mm 0.00 in0.0 mm
07:05 AM 45.4°F7.4°C 39.9°F4.4°C 81% 6.0 mph E9.7 kmh E 19.0 mph30.6 kmh 29.58 in1001.7 mb 0.00 in0.0 mm 0.00 in0.0 mm 0.00 in0.0 mm
07:10 AM 45.2°F7.3°C 39.7°F4.3°C 81% 2.0 mph S3.2 kmh S 21.0 mph33.8 kmh 29.58 in1001.7 mb 0.00 in0.0 mm 0.00 in0.0 mm 0.00 in0.0 mm
07:15 AM 45.1°F7.3°C 39.6°F4.2°C 81% 10.0 mph ESE16.1 kmh ESE 21.0 mph33.8 kmh 29.58 in1001.7 mb 0.00 in0.0 mm 0.00 in0.0 mm 0.00 in0.0 mm
07:20 AM 44.9°F7.2°C 39.4°F4.1°C 81% 10.0 mph SE16.1 kmh SE 19.0 mph30.6 kmh 29.58 in1001.7 mb 0.00 in0.0 mm 0.00 in0.0 mm 0.00 in0.0 mm
07:25 AM 45.0°F7.2°C 39.5°F4.2°C 81% 12.0 mph SE19.3 kmh SE 20.0 mph32.2 kmh 29.58 in1001.7 mb 0.00 in0.0 mm 0.00 in0.0 mm 0.00 in0.0 mm
07:30 AM 44.9°F7.2°C 39.4°F4.1°C 81% 11.0 mph ESE17.7 kmh ESE 20.0 mph32.2 kmh 29.59 in1002.0 mb 0.00 in0.0 mm 0.00 in0.0 mm 0.00 in0.0 mm
07:35 AM 44.8°F7.1°C 39.3°F4.1°C 81% 14.0 mph SE22.5 kmh SE 17.0 mph27.4 kmh 29.59 in1002.0 mb 0.00 in0.0 mm 0.00 in0.0 mm 0.00 in0.0 mm
07:40 AM 44.9°F7.2°C 39.4°F4.1°C 81% 11.0 mph SE17.7 kmh SE 19.0 mph30.6 kmh 29.59 in1002.0 mb 0.00 in0.0 mm 0.00 in0.0 mm 0.00 in0.0 mm
07:45 AM 45.0°F7.2°C 39.5°F4.2°C 81% 17.0 mph SE27.4 kmh SE 20.0 mph32.2 kmh 29.59 in1002.0 mb 0.00 in0.0 mm 0.00 in0.0 mm 0.00 in0.0 mm
07:55 AM 44.9°F7.2°C 39.1°F3.9°C 80% 18.0 mph SE29.0 kmh SE 19.0 mph30.6 kmh 29.60 in1002.4 mb 0.00 in0.0 mm 0.00 in0.0 mm 0.00 in0.0 mm
08:00 AM 45.1°F7.3°C 39.3°F4.1°C 80% 10.0 mph SSE16.1 kmh SSE 20.0 mph32.2 kmh 29.60 in1002.4 mb 0.00 in0.0 mm 0.00 in0.0 mm 0.00 in0.0 mm
08:05 AM 45.1°F7.3°C 39.3°F4.1°C 80% 13.0 mph SE20.9 kmh SE 21.0 mph33.8 kmh 29.60 in1002.4 mb 0.00 in0.0 mm 0.00 in0.0 mm 0.00 in0.0 mm
08:10 AM 45.1°F7.3°C 39.3°F4.1°C 80% 8.0 mph SSE12.9 kmh SSE 21.0 mph33.8 kmh 29.61 in1002.7 mb 0.00 in0.0 mm 0.00 in0.0 mm 0.00 in0.0 mm
08:15 AM 45.1°F7.3°C 39.3°F4.1°C 80% 5.0 mph SE8.0 kmh SE 24.0 mph38.6 kmh 29.61 in1002.7 mb 0.00 in0.0 mm 0.00 in0.0 mm 0.00 in0.0 mm
08:20 AM 45.1°F7.3°C 39.3°F4.1°C 80% 11.0 mph SE17.7 kmh SE 18.0 mph29.0 kmh 29.62 in1003.0 mb 0.00 in0.0 mm 0.00 in0.0 mm 0.00 in0.0 mm
08:25 AM 45.1°F7.3°C 39.3°F4.1°C 80% 3.0 mph S4.8 kmh S 20.0 mph32.2 kmh 29.62 in1003.0 mb 0.00 in0.0 mm 0.00 in0.0 mm 0.00 in0.0 mm
08:30 AM 44.9°F7.2°C 39.1°F3.9°C 80% 11.0 mph SE17.7 kmh SE 20.0 mph32.2 kmh 29.62 in1003.0 mb 0.00 in0.0 mm 0.00 in0.0 mm 0.00 in0.0 mm
08:40 AM 44.6°F7.0°C 39.1°F3.9°C 81% 9.0 mph SE14.5 kmh SE 19.0 mph30.6 kmh 29.63 in1003.4 mb 0.00 in0.0 mm 0.00 in0.0 mm 0.00 in0.0 mm
08:55 AM 44.6°F7.0°C 39.5°F4.2°C 82% 9.0 mph SE14.5 kmh SE 20.0 mph32.2 kmh 29.64 in1003.7 mb 0.00 in0.0 mm 0.00 in0.0 mm 0.00 in0.0 mm
09:10 AM 44.8°F7.1°C 39.7°F4.3°C 82% 11.0 mph SSE17.7 kmh SSE 18.0 mph29.0 kmh 29.64 in1003.7 mb 0.00 in0.0 mm 0.00 in0.0 mm 0.00 in0.0 mm
09:25 AM 45.1°F7.3°C 39.6°F4.2°C 81% 6.0 mph SE9.7 kmh SE 19.0 mph30.6 kmh 29.66 in1004.4 mb 0.00 in0.0 mm 0.00 in0.0 mm 0.00 in0.0 mm
09:40 AM 46.4°F8.0°C 40.3°F4.6°C 79% 16.0 mph SE25.7 kmh SE 21.0 mph33.8 kmh 29.66 in1004.4 mb 0.00 in0.0 mm 0.00 in0.0 mm 0.00 in0.0 mm
09:45 AM 46.2°F7.9°C 40.1°F4.5°C 79% 6.0 mph SE9.7 kmh SE 21.0 mph33.8 kmh 29.67 in1004.7 mb 0.00 in0.0 mm 0.00 in0.0 mm 0.00 in0.0 mm
09:50 AM 46.0°F7.8°C 40.2°F4.6°C 80% 8.0 mph SE12.9 kmh SE 16.0 mph25.7 kmh 29.67 in1004.7 mb 0.00 in0.0 mm 0.00 in0.0 mm 0.00 in0.0 mm
09:55 AM 45.8°F7.7°C 40.0°F4.4°C 80% 8.0 mph SE12.9 kmh SE 19.0 mph30.6 kmh 29.67 in1004.7 mb 0.00 in0.0 mm 0.00 in0.0 mm 0.00 in0.0 mm
10:05 AM 45.7°F7.6°C 40.2°F4.6°C 81% 5.0 mph SSE8.0 kmh SSE 15.0 mph24.1 kmh 29.68 in1005.1 mb 0.00 in0.0 mm 0.00 in0.0 mm 0.00 in0.0 mm
10:20 AM 46.9°F8.3°C 41.1°F5.1°C 80% 5.0 mph SE8.0 kmh SE 13.0 mph20.9 kmh 29.68 in1005.1 mb 0.00 in0.0 mm 0.00 in0.0 mm 0.00 in0.0 mm
10:30 AM 47.6°F8.7°C 41.4°F5.2°C 79% 11.0 mph SE17.7 kmh SE 15.0 mph24.1 kmh 29.68 in1005.1 mb 0.00 in0.0 mm 0.00 in0.0 mm 0.00 in0.0 mm
10:35 AM 48.0°F8.9°C 41.5°F5.3°C 78% 7.0 mph SE11.3 kmh SE 17.0 mph27.4 kmh 29.68 in1005.1 mb 0.00 in0.0 mm 0.00 in0.0 mm 0.00 in0.0 mm
10:40 AM 48.6°F9.2°C 42.1°F5.6°C 78% 9.0 mph SSE14.5 kmh SSE 17.0 mph27.4 kmh 29.67 in1004.7 mb 0.00 in0.0 mm 0.00 in0.0 mm 0.00 in0.0 mm
10:45 AM 49.0°F9.4°C 42.1°F5.6°C 77% 9.0 mph SE14.5 kmh SE 17.0 mph27.4 kmh 29.68 in1005.1 mb 0.00 in0.0 mm 0.00 in0.0 mm 0.00 in0.0 mm
10:50 AM 49.3°F9.6°C 42.4°F5.8°C 77% 11.0 mph E17.7 kmh E 13.0 mph20.9 kmh 29.68 in1005.1 mb 0.00 in0.0 mm 0.00 in0.0 mm 0.00 in0.0 mm
10:55 AM 49.5°F9.7°C 42.6°F5.9°C 77% 6.0 mph SSE9.7 kmh SSE 14.0 mph22.5 kmh 29.68 in1005.1 mb 0.00 in0.0 mm 0.00 in0.0 mm 0.00 in0.0 mm
11:00 AM 49.7°F9.8°C 42.5°F5.8°C 76% 8.0 mph SE12.9 kmh SE 14.0 mph22.5 kmh 29.68 in1005.1 mb 0.00 in0.0 mm 0.00 in0.0 mm 0.00 in0.0 mm
11:05 AM 49.9°F9.9°C 42.3°F5.7°C 75% 7.0 mph SE11.3 kmh SE 14.0 mph22.5 kmh 29.68 in1005.1 mb 0.00 in0.0 mm 0.00 in0.0 mm 0.00 in0.0 mm
11:10 AM 50.1°F10.1°C 42.5°F5.8°C 75% 4.0 mph SE6.4 kmh SE 15.0 mph24.1 kmh 29.68 in1005.1 mb 0.00 in0.0 mm 0.00 in0.0 mm 0.00 in0.0 mm
11:15 AM 50.4°F10.2°C 42.8°F6.0°C 75% 12.0 mph SE19.3 kmh SE 17.0 mph27.4 kmh 29.68 in1005.1 mb 0.00 in0.0 mm 0.00 in0.0 mm 0.00 in0.0 mm
11:20 AM 50.6°F10.3°C 42.6°F5.9°C 74% 5.0 mph SE8.0 kmh SE 12.0 mph19.3 kmh 29.68 in1005.1 mb 0.00 in0.0 mm 0.00 in0.0 mm 0.00 in0.0 mm
11:25 AM 51.1°F10.6°C 43.1°F6.2°C 74% 7.0 mph ESE11.3 kmh ESE 16.0 mph25.7 kmh 29.69 in1005.4 mb 0.00 in0.0 mm 0.00 in0.0 mm 0.00 in0.0 mm
11:30 AM 51.7°F10.9°C 43.0°F6.1°C 72% 9.0 mph S14.5 kmh S 16.0 mph25.7 kmh 29.68 in1005.1 mb 0.00 in0.0 mm 0.00 in0.0 mm 0.00 in0.0 mm
11:35 AM 52.2°F11.2°C 43.1°F6.2°C 71% 7.0 mph ESE11.3 kmh ESE 16.0 mph25.7 kmh 29.68 in1005.1 mb 0.00 in0.0 mm 0.00 in0.0 mm 0.00 in0.0 mm
11:40 AM 52.9°F11.6°C 43.4°F6.3°C 70% 5.0 mph SSE8.0 kmh SSE 16.0 mph25.7 kmh 29.69 in1005.4 mb 0.00 in0.0 mm 0.00 in0.0 mm 0.00 in0.0 mm
11:45 AM 53.0°F11.7°C 43.1°F6.2°C 69% 4.0 mph SE6.4 kmh SE 16.0 mph25.7 kmh 29.68 in1005.1 mb 0.00 in0.0 mm 0.00 in0.0 mm 0.00 in0.0 mm
11:50 AM 53.1°F11.7°C 43.2°F6.2°C 69% 9.0 mph S14.5 kmh S 13.0 mph20.9 kmh 29.68 in1005.1 mb 0.00 in0.0 mm 0.00 in0.0 mm 0.00 in0.0 mm
11:55 AM 53.1°F11.7°C 43.2°F6.2°C 69% 9.0 mph SE14.5 kmh SE 16.0 mph25.7 kmh 29.68 in1005.1 mb 0.00 in0.0 mm 0.00 in0.0 mm 0.00 in0.0 mm
12:05 PM 52.3°F11.3°C 42.8°F6.0°C 70% 3.0 mph SE4.8 kmh SE 13.0 mph20.9 kmh 29.68 in1005.1 mb 0.00 in0.0 mm 0.00 in0.0 mm 0.00 in0.0 mm
12:10 PM 51.9°F11.1°C 42.8°F6.0°C 71% 2.0 mph SE3.2 kmh SE 13.0 mph20.9 kmh 29.67 in1004.7 mb 0.00 in0.0 mm 0.00 in0.0 mm 0.00 in0.0 mm
12:15 PM 51.9°F11.1°C 42.4°F5.8°C 70% 7.0 mph SE11.3 kmh SE 13.0 mph20.9 kmh 29.67 in1004.7 mb 0.00 in0.0 mm 0.00 in0.0 mm 0.00 in0.0 mm
12:20 PM 52.1°F11.2°C 42.3°F5.7°C 69% 6.0 mph SE9.7 kmh SE 11.0 mph17.7 kmh 29.67 in1004.7 mb 0.00 in0.0 mm 0.00 in0.0 mm 0.00 in0.0 mm
12:45 PM 54.5°F12.5°C 39.6°F4.2°C 57% 6.0 mph SE9.7 kmh SE 8.0 mph12.9 kmh 29.66 in1004.4 mb 0.00 in0.0 mm 0.00 in0.0 mm 0.00 in0.0 mm
12:50 PM 54.1°F12.3°C 39.7°F4.3°C 58% 3.0 mph SE4.8 kmh SE 10.0 mph16.1 kmh 29.66 in1004.4 mb 0.00 in0.0 mm 0.00 in0.0 mm 0.00 in0.0 mm
12:55 PM 53.8°F12.1°C 39.8°F4.3°C 59% 5.0 mph S8.0 kmh S 10.0 mph16.1 kmh 29.66 in1004.4 mb 0.00 in0.0 mm 0.00 in0.0 mm 0.00 in0.0 mm
01:05 PM 53.4°F11.9°C 39.5°F4.2°C 59% 8.0 mph SSE12.9 kmh SSE 12.0 mph19.3 kmh 29.65 in1004.1 mb 0.00 in0.0 mm 0.00 in0.0 mm 0.00 in0.0 mm
01:10 PM 53.1°F11.7°C 38.7°F3.7°C 58% 5.0 mph SSW8.0 kmh SSW 12.0 mph19.3 kmh 29.65 in1004.1 mb 0.00 in0.0 mm 0.00 in0.0 mm 0.00 in0.0 mm
01:15 PM 53.0°F11.7°C 37.3°F2.9°C 55% 6.0 mph S9.7 kmh S 12.0 mph19.3 kmh 29.65 in1004.1 mb 0.00 in0.0 mm 0.00 in0.0 mm 0.00 in0.0 mm
01:20 PM 53.2°F11.8°C 37.9°F3.3°C 56% 2.0 mph SSE3.2 kmh SSE 10.0 mph16.1 kmh 29.65 in1004.1 mb 0.00 in0.0 mm 0.00 in0.0 mm 0.00 in0.0 mm
01:25 PM 53.5°F11.9°C 38.2°F3.4°C 56% 6.0 mph S9.7 kmh S 10.0 mph16.1 kmh 29.64 in1003.7 mb 0.00 in0.0 mm 0.00 in0.0 mm 0.00 in0.0 mm
01:30 PM 53.6°F12.0°C 37.4°F3.0°C 54% 3.0 mph S4.8 kmh S 10.0 mph16.1 kmh 29.64 in1003.7 mb 0.00 in0.0 mm 0.00 in0.0 mm 0.00 in0.0 mm
01:35 PM 53.9°F12.2°C 36.7°F2.6°C 52% 2.0 mph S3.2 kmh S 7.0 mph11.3 kmh 29.64 in1003.7 mb 0.00 in0.0 mm 0.00 in0.0 mm 0.00 in0.0 mm
01:40 PM 53.9°F12.2°C 36.7°F2.6°C 52% 4.0 mph S6.4 kmh S 7.0 mph11.3 kmh 29.63 in1003.4 mb 0.00 in0.0 mm 0.00 in0.0 mm 0.00 in0.0 mm
01:45 PM 53.7°F12.1°C 36.5°F2.5°C 52% 2.0 mph S3.2 kmh S 7.0 mph11.3 kmh 29.63 in1003.4 mb 0.00 in0.0 mm 0.00 in0.0 mm 0.00 in0.0 mm
01:50 PM 53.4°F11.9°C 36.7°F2.6°C 53% 1.0 mph SW1.6 kmh SW 4.0 mph6.4 kmh 29.63 in1003.4 mb 0.00 in0.0 mm 0.00 in0.0 mm 0.00 in0.0 mm
01:55 PM 53.3°F11.8°C 37.6°F3.1°C 55% 1.0 mph SSW1.6 kmh SSW 4.0 mph6.4 kmh 29.63 in1003.4 mb 0.00 in0.0 mm 0.00 in0.0 mm 0.00 in0.0 mm
02:00 PM 53.0°F11.7°C 37.3°F2.9°C 55% Calm Calm 5.0 mph8.0 kmh 29.64 in1003.7 mb 0.00 in0.0 mm 0.00 in0.0 mm 0.00 in0.0 mm
02:05 PM 52.4°F11.3°C 37.2°F2.9°C 56% Calm Calm 5.0 mph8.0 kmh 29.64 in1003.7 mb 0.00 in0.0 mm 0.00 in0.0 mm 0.00 in0.0 mm
02:10 PM 52.2°F11.2°C 37.0°F2.8°C 56% Calm Calm 5.0 mph8.0 kmh 29.63 in1003.4 mb 0.00 in0.0 mm 0.00 in0.0 mm 0.00 in0.0 mm
02:15 PM 52.1°F11.2°C 36.9°F2.7°C 56% 1.0 mph SE1.6 kmh SE 5.0 mph8.0 kmh 29.63 in1003.4 mb 0.00 in0.0 mm 0.00 in0.0 mm 0.00 in0.0 mm
02:20 PM 51.9°F11.1°C 37.2°F2.9°C 57% 1.0 mph SSE1.6 kmh SSE 3.0 mph4.8 kmh 29.63 in1003.4 mb 0.00 in0.0 mm 0.00 in0.0 mm 0.00 in0.0 mm
02:25 PM 51.9°F11.1°C 37.2°F2.9°C 57% Calm Calm 3.0 mph4.8 kmh 29.63 in1003.4 mb 0.00 in0.0 mm 0.00 in0.0 mm 0.00 in0.0 mm
02:30 PM 51.9°F11.1°C 37.2°F2.9°C 57% Calm Calm 3.0 mph4.8 kmh 29.63 in1003.4 mb 0.00 in0.0 mm 0.00 in0.0 mm 0.00 in0.0 mm
02:35 PM 51.9°F11.1°C 37.6°F3.1°C 58% 1.0 mph SSE1.6 kmh SSE 2.0 mph3.2 kmh 29.63 in1003.4 mb 0.00 in0.0 mm 0.00 in0.0 mm 0.00 in0.0 mm
02:40 PM 52.2°F11.2°C 36.1°F2.3°C 54% 2.0 mph SSE3.2 kmh SSE 3.0 mph4.8 kmh 29.63 in1003.4 mb 0.00 in0.0 mm 0.00 in0.0 mm 0.00 in0.0 mm
02:45 PM 52.4°F11.3°C 36.7°F2.6°C 55% 1.0 mph SSE1.6 kmh SSE 3.0 mph4.8 kmh 29.63 in1003.4 mb 0.00 in0.0 mm 0.00 in0.0 mm 0.00 in0.0 mm
02:50 PM 52.3°F11.3°C 35.7°F2.1°C 53% 1.0 mph SSE1.6 kmh SSE 3.0 mph4.8 kmh 29.62 in1003.0 mb 0.00 in0.0 mm 0.00 in0.0 mm 0.00 in0.0 mm
02:55 PM 52.2°F11.2°C 36.1°F2.3°C 54% 2.0 mph ESE3.2 kmh ESE 3.0 mph4.8 kmh 29.62 in1003.0 mb 0.00 in0.0 mm 0.00 in0.0 mm 0.00 in0.0 mm
03:00 PM 52.0°F11.1°C 35.9°F2.2°C 54% 1.0 mph ESE1.6 kmh ESE 3.0 mph4.8 kmh 29.62 in1003.0 mb 0.00 in0.0 mm 0.00 in0.0 mm 0.00 in0.0 mm
03:05 PM 52.0°F11.1°C 36.4°F2.4°C 55% 2.0 mph ESE3.2 kmh ESE 2.0 mph3.2 kmh 29.62 in1003.0 mb 0.00 in0.0 mm 0.00 in0.0 mm 0.00 in0.0 mm
03:10 PM 52.1°F11.2°C 36.4°F2.4°C 55% Calm Calm 2.0 mph3.2 kmh 29.62 in1003.0 mb 0.00 in0.0 mm 0.00 in0.0 mm 0.00 in0.0 mm
03:15 PM 51.6°F10.9°C 36.9°F2.7°C 57% Calm Calm 2.0 mph3.2 kmh 29.62 in1003.0 mb 0.00 in0.0 mm 0.00 in0.0 mm 0.00 in0.0 mm
03:20 PM 51.1°F10.6°C 37.7°F3.2°C 60% Calm Calm -- 29.63 in1003.4 mb 0.00 in0.0 mm 0.00 in0.0 mm 0.00 in0.0 mm
03:25 PM 51.0°F10.6°C 36.8°F2.7°C 58% Calm Calm -- 29.63 in1003.4 mb 0.00 in0.0 mm 0.00 in0.0 mm 0.00 in0.0 mm
03:30 PM 50.9°F10.5°C 37.5°F3.1°C 60% Calm Calm -- 29.63 in1003.4 mb 0.00 in0.0 mm 0.00 in0.0 mm 0.00 in0.0 mm
03:35 PM 50.4°F10.2°C 37.9°F3.3°C 62% Calm Calm 1.0 mph1.6 kmh 29.63 in1003.4 mb 0.00 in0.0 mm 0.00 in0.0 mm 0.00 in0.0 mm
03:40 PM 49.9°F9.9°C 37.4°F3.0°C 62% Calm Calm 1.0 mph1.6 kmh 29.63 in1003.4 mb 0.00 in0.0 mm 0.00 in0.0 mm 0.00 in0.0 mm
03:45 PM 49.8°F9.9°C 36.9°F2.7°C 61% Calm Calm 1.0 mph1.6 kmh 29.64 in1003.7 mb 0.00 in0.0 mm 0.00 in0.0 mm 0.00 in0.0 mm
03:50 PM 50.0°F10.0°C 35.8°F2.1°C 58% Calm Calm -- 29.64 in1003.7 mb 0.00 in0.0 mm 0.00 in0.0 mm 0.00 in0.0 mm
03:55 PM 50.2°F10.1°C 36.0°F2.2°C 58% Calm Calm 2.0 mph3.2 kmh 29.63 in1003.4 mb 0.00 in0.0 mm 0.00 in0.0 mm 0.00 in0.0 mm
04:00 PM 50.0°F10.0°C 35.8°F2.1°C 58% Calm Calm 2.0 mph3.2 kmh 29.64 in1003.7 mb 0.00 in0.0 mm 0.00 in0.0 mm 0.00 in0.0 mm
04:05 PM 49.8°F9.9°C 35.2°F1.8°C 57% 4.0 mph S6.4 kmh S 7.0 mph11.3 kmh 29.64 in1003.7 mb 0.00 in0.0 mm 0.00 in0.0 mm 0.00 in0.0 mm
04:10 PM 51.2°F10.7°C 34.7°F1.5°C 53% 1.0 mph W1.6 kmh W 7.0 mph11.3 kmh 29.63 in1003.4 mb 0.00 in0.0 mm 0.00 in0.0 mm 0.00 in0.0 mm
04:15 PM 50.7°F10.4°C 36.0°F2.2°C 57% 1.0 mph NW1.6 kmh NW 7.0 mph11.3 kmh 29.64 in1003.7 mb 0.00 in0.0 mm 0.00 in0.0 mm 0.00 in0.0 mm
04:20 PM 49.5°F9.7°C 36.2°F2.3°C 60% Calm Calm 1.0 mph1.6 kmh 29.64 in1003.7 mb 0.00 in0.0 mm 0.00 in0.0 mm 0.00 in0.0 mm
04:25 PM 49.2°F9.6°C 35.9°F2.2°C 60% Calm Calm 1.0 mph1.6 kmh 29.64 in1003.7 mb 0.00 in0.0 mm 0.00 in0.0 mm 0.00 in0.0 mm
04:30 PM 49.1°F9.5°C 36.3°F2.4°C 61% 2.0 mph NW3.2 kmh NW 2.0 mph3.2 kmh 29.64 in1003.7 mb 0.00 in0.0 mm 0.00 in0.0 mm 0.00 in0.0 mm
04:35 PM 48.8°F9.3°C 36.0°F2.2°C 61% Calm Calm 2.0 mph3.2 kmh 29.64 in1003.7 mb 0.00 in0.0 mm 0.00 in0.0 mm 0.00 in0.0 mm
04:40 PM 48.5°F9.2°C 36.1°F2.3°C 62% 3.0 mph W4.8 kmh W 4.0 mph6.4 kmh 29.64 in1003.7 mb 0.00 in0.0 mm 0.00 in0.0 mm 0.00 in0.0 mm
04:45 PM 48.2°F9.0°C 35.8°F2.1°C 62% 1.0 mph W1.6 kmh W 4.0 mph6.4 kmh 29.64 in1003.7 mb 0.00 in0.0 mm 0.00 in0.0 mm 0.00 in0.0 mm
04:50 PM 48.3°F9.1°C 35.5°F1.9°C 61% 2.0 mph W3.2 kmh W 3.0 mph4.8 kmh 29.64 in1003.7 mb 0.00 in0.0 mm 0.00 in0.0 mm 0.00 in0.0 mm
04:55 PM 48.1°F8.9°C 35.3°F1.8°C 61% Calm Calm 3.0 mph4.8 kmh 29.64 in1003.7 mb 0.00 in0.0 mm 0.00 in0.0 mm 0.00 in0.0 mm
05:00 PM 48.3°F9.1°C 35.5°F1.9°C 61% Calm Calm 3.0 mph4.8 kmh 29.65 in1004.1 mb 0.00 in0.0 mm 0.00 in0.0 mm 0.00 in0.0 mm
05:05 PM 48.3°F9.1°C 35.5°F1.9°C 61% 5.0 mph WSW8.0 kmh WSW 5.0 mph8.0 kmh 29.65 in1004.1 mb 0.00 in0.0 mm 0.00 in0.0 mm 0.00 in0.0 mm
05:10 PM 48.4°F9.1°C 35.2°F1.8°C 60% Calm Calm 5.0 mph8.0 kmh 29.65 in1004.1 mb 0.00 in0.0 mm 0.00 in0.0 mm 0.00 in0.0 mm
05:15 PM 48.0°F8.9°C 35.2°F1.8°C 61% 1.0 mph WNW1.6 kmh WNW 5.0 mph8.0 kmh 29.66 in1004.4 mb 0.00 in0.0 mm 0.00 in0.0 mm 0.00 in0.0 mm
05:20 PM 48.0°F8.9°C 35.2°F1.8°C 61% 1.0 mph W1.6 kmh W 2.0 mph3.2 kmh 29.66 in1004.4 mb 0.00 in0.0 mm 0.00 in0.0 mm 0.00 in0.0 mm
05:25 PM 47.7°F8.7°C 35.3°F1.8°C 62% Calm Calm 2.0 mph3.2 kmh 29.66 in1004.4 mb 0.00 in0.0 mm 0.00 in0.0 mm 0.00 in0.0 mm
05:30 PM 47.2°F8.4°C 35.3°F1.8°C 63% Calm Calm 2.0 mph3.2 kmh 29.66 in1004.4 mb 0.00 in0.0 mm 0.00 in0.0 mm 0.00 in0.0 mm
05:35 PM 47.3°F8.5°C 35.4°F1.9°C 63% Calm Calm 2.0 mph3.2 kmh 29.67 in1004.7 mb 0.00 in0.0 mm 0.00 in0.0 mm 0.00 in0.0 mm
05:40 PM 47.1°F8.4°C 35.2°F1.8°C 63% Calm Calm 2.0 mph3.2 kmh 29.67 in1004.7 mb 0.00 in0.0 mm 0.00 in0.0 mm 0.00 in0.0 mm
05:45 PM 47.0°F8.3°C 35.1°F1.7°C 63% 2.0 mph SW3.2 kmh SW 5.0 mph8.0 kmh 29.67 in1004.7 mb 0.00 in0.0 mm 0.00 in0.0 mm 0.00 in0.0 mm
05:50 PM 47.5°F8.6°C 35.1°F1.7°C 62% 6.0 mph SSE9.7 kmh SSE 7.0 mph11.3 kmh 29.66 in1004.4 mb 0.00 in0.0 mm 0.00 in0.0 mm 0.00 in0.0 mm
05:55 PM 47.4°F8.6°C 35.5°F1.9°C 63% 1.0 mph SW1.6 kmh SW 7.0 mph11.3 kmh 29.66 in1004.4 mb 0.00 in0.0 mm 0.00 in0.0 mm 0.00 in0.0 mm
06:05 PM 46.8°F8.2°C 34.9°F1.6°C 63% 2.0 mph S3.2 kmh S 3.0 mph4.8 kmh 29.67 in1004.7 mb 0.00 in0.0 mm 0.00 in0.0 mm 0.00 in0.0 mm
06:10 PM 47.1°F8.4°C 35.2°F1.8°C 63% 3.0 mph S4.8 kmh S 3.0 mph4.8 kmh 29.67 in1004.7 mb 0.00 in0.0 mm 0.00 in0.0 mm 0.00 in0.0 mm
06:15 PM 46.6°F8.1°C 35.1°F1.7°C 64% Calm Calm 3.0 mph4.8 kmh 29.67 in1004.7 mb 0.00 in0.0 mm 0.00 in0.0 mm 0.00 in0.0 mm
06:20 PM 46.4°F8.0°C 34.9°F1.6°C 64% 1.0 mph S1.6 kmh S 2.0 mph3.2 kmh 29.67 in1004.7 mb 0.00 in0.0 mm 0.00 in0.0 mm 0.00 in0.0 mm
06:25 PM 46.0°F7.8°C 34.9°F1.6°C 65% Calm Calm 2.0 mph3.2 kmh 29.68 in1005.1 mb 0.00 in0.0 mm 0.00 in0.0 mm 0.00 in0.0 mm
06:30 PM 45.3°F7.4°C 34.6°F1.4°C 66% 1.0 mph S1.6 kmh S 2.0 mph3.2 kmh 29.68 in1005.1 mb 0.00 in0.0 mm 0.00 in0.0 mm 0.00 in0.0 mm
06:35 PM 44.9°F7.2°C 34.6°F1.4°C 67% 1.0 mph S1.6 kmh S 3.0 mph4.8 kmh 29.68 in1005.1 mb 0.00 in0.0 mm 0.00 in0.0 mm 0.00 in0.0 mm
06:40 PM 44.7°F7.1°C 34.8°F1.6°C 68% 1.0 mph S1.6 kmh S 3.0 mph4.8 kmh 29.69 in1005.4 mb 0.00 in0.0 mm 0.00 in0.0 mm 0.00 in0.0 mm
06:45 PM 45.3°F7.4°C 35.0°F1.7°C 67% 3.0 mph WSW4.8 kmh WSW 7.0 mph11.3 kmh 29.69 in1005.4 mb 0.00 in0.0 mm 0.00 in0.0 mm 0.00 in0.0 mm
06:50 PM 45.8°F7.7°C 35.1°F1.7°C 66% 2.0 mph WSW3.2 kmh WSW 6.0 mph9.7 kmh 29.69 in1005.4 mb 0.00 in0.0 mm 0.00 in0.0 mm 0.00 in0.0 mm
06:55 PM 45.7°F7.6°C 35.4°F1.9°C 67% 3.0 mph WSW4.8 kmh WSW 6.0 mph9.7 kmh 29.69 in1005.4 mb 0.00 in0.0 mm 0.00 in0.0 mm 0.00 in0.0 mm
07:00 PM 45.7°F7.6°C 35.0°F1.7°C 66% 2.0 mph SW3.2 kmh SW 8.0 mph12.9 kmh 29.69 in1005.4 mb 0.00 in0.0 mm 0.00 in0.0 mm 0.00 in0.0 mm
07:05 PM 45.9°F7.7°C 35.2°F1.8°C 66% 4.0 mph WSW6.4 kmh WSW 8.0 mph12.9 kmh 29.70 in1005.8 mb 0.00 in0.0 mm 0.00 in0.0 mm 0.00 in0.0 mm
07:10 PM 46.4°F8.0°C 35.3°F1.8°C 65% 5.0 mph SW8.0 kmh SW 11.0 mph17.7 kmh 29.70 in1005.8 mb 0.00 in0.0 mm 0.00 in0.0 mm 0.00 in0.0 mm
07:15 PM 46.7°F8.2°C 35.2°F1.8°C 64% 8.0 mph SW12.9 kmh SW 11.0 mph17.7 kmh 29.70 in1005.8 mb 0.00 in0.0 mm 0.00 in0.0 mm 0.00 in0.0 mm
07:20 PM 46.4°F8.0°C 35.3°F1.8°C 65% 7.0 mph SSW11.3 kmh SSW 10.0 mph16.1 kmh 29.70 in1005.8 mb 0.00 in0.0 mm 0.00 in0.0 mm 0.00 in0.0 mm
07:25 PM 46.0°F7.8°C 35.3°F1.8°C 66% 4.0 mph SW6.4 kmh SW 10.0 mph16.1 kmh 29.70 in1005.8 mb 0.00 in0.0 mm 0.00 in0.0 mm 0.00 in0.0 mm
07:30 PM 45.7°F7.6°C 35.0°F1.7°C 66% 3.0 mph SW4.8 kmh SW 10.0 mph16.1 kmh 29.71 in1006.1 mb 0.00 in0.0 mm 0.00 in0.0 mm 0.00 in0.0 mm
07:35 PM 45.6°F7.6°C 34.9°F1.6°C 66% 5.0 mph SW8.0 kmh SW 7.0 mph11.3 kmh 29.71 in1006.1 mb 0.00 in0.0 mm 0.00 in0.0 mm 0.00 in0.0 mm
07:40 PM 45.4°F7.4°C 34.7°F1.5°C 66% 4.0 mph SW6.4 kmh SW 7.0 mph11.3 kmh 29.71 in1006.1 mb 0.00 in0.0 mm 0.00 in0.0 mm 0.00 in0.0 mm
07:45 PM 45.3°F7.4°C 34.6°F1.4°C 66% 4.0 mph WSW6.4 kmh WSW 8.0 mph12.9 kmh 29.71 in1006.1 mb 0.00 in0.0 mm 0.00 in0.0 mm 0.00 in0.0 mm
07:50 PM 45.3°F7.4°C 34.6°F1.4°C 66% 2.0 mph SW3.2 kmh SW 5.0 mph8.0 kmh 29.72 in1006.4 mb 0.00 in0.0 mm 0.00 in0.0 mm 0.00 in0.0 mm
07:55 PM 45.1°F7.3°C 34.4°F1.3°C 66% 5.0 mph SW8.0 kmh SW 6.0 mph9.7 kmh 29.72 in1006.4 mb 0.00 in0.0 mm 0.00 in0.0 mm 0.00 in0.0 mm
08:00 PM 45.0°F7.2°C 34.3°F1.3°C 66% 3.0 mph SW4.8 kmh SW 6.0 mph9.7 kmh 29.72 in1006.4 mb 0.00 in0.0 mm 0.00 in0.0 mm 0.00 in0.0 mm
08:05 PM 44.8°F7.1°C 34.5°F1.4°C 67% 2.0 mph SW3.2 kmh SW 5.0 mph8.0 kmh 29.73 in1006.8 mb 0.00 in0.0 mm 0.00 in0.0 mm 0.00 in0.0 mm
08:10 PM 44.4°F6.9°C 34.5°F1.4°C 68% 1.0 mph SW1.6 kmh SW 5.0 mph8.0 kmh 29.73 in1006.8 mb 0.00 in0.0 mm 0.00 in0.0 mm 0.00 in0.0 mm
08:15 PM 43.9°F6.6°C 34.4°F1.3°C 69% 2.0 mph SW3.2 kmh SW 5.0 mph8.0 kmh 29.73 in1006.8 mb 0.00 in0.0 mm 0.00 in0.0 mm 0.00 in0.0 mm
08:20 PM 43.8°F6.6°C 34.3°F1.3°C 69% Calm Calm 3.0 mph4.8 kmh 29.74 in1007.1 mb 0.00 in0.0 mm 0.00 in0.0 mm 0.00 in0.0 mm
08:25 PM 43.3°F6.3°C 34.5°F1.4°C 71% 1.0 mph SW1.6 kmh SW 3.0 mph4.8 kmh 29.74 in1007.1 mb 0.00 in0.0 mm 0.00 in0.0 mm 0.00 in0.0 mm
08:30 PM 43.2°F6.2°C 34.5°F1.4°C 71% 1.0 mph SW1.6 kmh SW 3.0 mph4.8 kmh 29.74 in1007.1 mb 0.00 in0.0 mm 0.00 in0.0 mm 0.00 in0.0 mm
08:35 PM 43.1°F6.2°C 34.7°F1.5°C 72% 1.0 mph SW1.6 kmh SW 2.0 mph3.2 kmh 29.74 in1007.1 mb 0.00 in0.0 mm 0.00 in0.0 mm 0.00 in0.0 mm
08:40 PM 43.0°F6.1°C 34.6°F1.4°C 72% 1.0 mph SSW1.6 kmh SSW 2.0 mph3.2 kmh 29.74 in1007.1 mb 0.00 in0.0 mm 0.00 in0.0 mm 0.00 in0.0 mm
08:45 PM 42.9°F6.1°C 34.5°F1.4°C 72% Calm Calm 2.0 mph3.2 kmh 29.75 in1007.5 mb 0.00 in0.0 mm 0.00 in0.0 mm 0.00 in0.0 mm
08:50 PM 42.7°F5.9°C 34.7°F1.5°C 73% 1.0 mph SSW1.6 kmh SSW 2.0 mph3.2 kmh 29.75 in1007.5 mb 0.00 in0.0 mm 0.00 in0.0 mm 0.00 in0.0 mm
08:55 PM 42.8°F6.0°C 34.8°F1.6°C 73% 1.0 mph SSW1.6 kmh SSW 3.0 mph4.8 kmh 29.75 in1007.5 mb 0.00 in0.0 mm 0.00 in0.0 mm 0.00 in0.0 mm
09:00 PM 42.4°F5.8°C 34.4°F1.3°C 73% Calm Calm 3.0 mph4.8 kmh 29.75 in1007.5 mb 0.00 in0.0 mm 0.00 in0.0 mm 0.00 in0.0 mm
09:05 PM 41.9°F5.5°C 34.2°F1.2°C 74% Calm Calm -- 29.75 in1007.5 mb 0.00 in0.0 mm 0.00 in0.0 mm 0.00 in0.0 mm
09:10 PM 41.4°F5.2°C 34.1°F1.2°C 75% Calm Calm -- 29.75 in1007.5 mb 0.00 in0.0 mm 0.00 in0.0 mm 0.00 in0.0 mm
09:15 PM 41.1°F5.1°C 34.1°F1.2°C 76% Calm Calm -- 29.76 in1007.8 mb 0.00 in0.0 mm 0.00 in0.0 mm 0.00 in0.0 mm
09:20 PM 40.8°F4.9°C 34.2°F1.2°C 77% Calm Calm -- 29.76 in1007.8 mb 0.00 in0.0 mm 0.00 in0.0 mm 0.00 in0.0 mm
09:25 PM 41.0°F5.0°C 34.4°F1.3°C 77% Calm Calm -- 29.76 in1007.8 mb 0.00 in0.0 mm 0.00 in0.0 mm 0.00 in0.0 mm
09:30 PM 40.9°F4.9°C 34.6°F1.4°C 78% Calm Calm -- 29.77 in1008.1 mb 0.00 in0.0 mm 0.00 in0.0 mm 0.00 in0.0 mm
09:35 PM 41.1°F5.1°C 34.8°F1.6°C 78% Calm Calm -- 29.77 in1008.1 mb 0.00 in0.0 mm 0.00 in0.0 mm 0.00 in0.0 mm
09:40 PM 41.2°F5.1°C 34.9°F1.6°C 78% Calm Calm -- 29.77 in1008.1 mb 0.00 in0.0 mm 0.00 in0.0 mm 0.00 in0.0 mm
09:45 PM 41.3°F5.2°C 35.0°F1.7°C 78% 1.0 mph WSW1.6 kmh WSW 3.0 mph4.8 kmh 29.77 in1008.1 mb 0.00 in0.0 mm 0.00 in0.0 mm 0.00 in0.0 mm
09:50 PM 41.8°F5.4°C 35.1°F1.7°C 77% 2.0 mph W3.2 kmh W 6.0 mph9.7 kmh 29.78 in1008.5 mb 0.00 in0.0 mm 0.00 in0.0 mm 0.00 in0.0 mm
09:55 PM 42.2°F5.7°C 35.2°F1.8°C 76% 19.0 mph WNW30.6 kmh WNW 24.0 mph38.6 kmh 29.79 in1008.8 mb 0.00 in0.0 mm 0.00 in0.0 mm 0.00 in0.0 mm
10:00 PM 43.1°F6.2°C 35.7°F2.1°C 75% 3.0 mph WSW4.8 kmh WSW 24.0 mph38.6 kmh 29.80 in1009.1 mb 0.00 in0.0 mm 0.00 in0.0 mm 0.00 in0.0 mm
10:05 PM 43.5°F6.4°C 36.1°F2.3°C 75% 9.0 mph WNW14.5 kmh WNW 13.0 mph20.9 kmh 29.80 in1009.1 mb 0.00 in0.0 mm 0.00 in0.0 mm 0.00 in0.0 mm
10:10 PM 43.5°F6.4°C 36.5°F2.5°C 76% 3.0 mph W4.8 kmh W 13.0 mph20.9 kmh 29.80 in1009.1 mb 0.01 in0.3 mm 0.12 in3.0 mm 0.01 in0.3 mm
10:15 PM 43.3°F6.3°C 36.3°F2.4°C 76% 3.0 mph W4.8 kmh W 13.0 mph20.9 kmh 29.81 in1009.5 mb 0.01 in0.3 mm 0.00 in0.0 mm 0.01 in0.3 mm
10:20 PM 43.1°F6.2°C 36.4°F2.4°C 77% 1.0 mph WSW1.6 kmh WSW 9.0 mph14.5 kmh 29.81 in1009.5 mb 0.01 in0.3 mm 0.00 in0.0 mm 0.01 in0.3 mm
10:25 PM 42.8°F6.0°C 36.4°F2.4°C 78% 5.0 mph WSW8.0 kmh WSW 9.0 mph14.5 kmh 29.81 in1009.5 mb 0.01 in0.3 mm 0.00 in0.0 mm 0.01 in0.3 mm
10:30 PM 43.0°F6.1°C 36.6°F2.6°C 78% 6.0 mph WSW9.7 kmh WSW 10.0 mph16.1 kmh 29.81 in1009.5 mb 0.01 in0.3 mm 0.00 in0.0 mm 0.01 in0.3 mm
10:35 PM 43.1°F6.2°C 36.1°F2.3°C 76% 8.0 mph WNW12.9 kmh WNW 16.0 mph25.7 kmh 29.82 in1009.8 mb 0.01 in0.3 mm 0.00 in0.0 mm 0.01 in0.3 mm
10:40 PM 43.3°F6.3°C 36.3°F2.4°C 76% 6.0 mph W9.7 kmh W 16.0 mph25.7 kmh 29.82 in1009.8 mb 0.01 in0.3 mm 0.00 in0.0 mm 0.01 in0.3 mm
10:45 PM 43.4°F6.3°C 36.0°F2.2°C 75% 10.0 mph WNW16.1 kmh WNW 16.0 mph25.7 kmh 29.82 in1009.8 mb 0.01 in0.3 mm 0.00 in0.0 mm 0.01 in0.3 mm
10:50 PM 43.6°F6.4°C 35.9°F2.2°C 74% 2.0 mph NW3.2 kmh NW 16.0 mph25.7 kmh 29.82 in1009.8 mb 0.01 in0.3 mm 0.00 in0.0 mm 0.01 in0.3 mm
10:55 PM 43.9°F6.6°C 35.8°F2.1°C 73% 9.0 mph WSW14.5 kmh WSW 16.0 mph25.7 kmh 29.82 in1009.8 mb 0.01 in0.3 mm 0.00 in0.0 mm 0.01 in0.3 mm
11:00 PM 43.9°F6.6°C 35.8°F2.1°C 73% 8.0 mph NW12.9 kmh NW 16.0 mph25.7 kmh 29.82 in1009.8 mb 0.01 in0.3 mm 0.00 in0.0 mm 0.01 in0.3 mm
11:05 PM 44.1°F6.7°C 35.7°F2.1°C 72% 11.0 mph WNW17.7 kmh WNW 18.0 mph29.0 kmh 29.83 in1010.2 mb 0.01 in0.3 mm 0.00 in0.0 mm 0.01 in0.3 mm
11:10 PM 44.3°F6.8°C 35.9°F2.2°C 72% 7.0 mph NW11.3 kmh NW 18.0 mph29.0 kmh 29.83 in1010.2 mb 0.01 in0.3 mm 0.00 in0.0 mm 0.01 in0.3 mm
11:15 PM 44.2°F6.8°C 35.8°F2.1°C 72% 4.0 mph W6.4 kmh W 18.0 mph29.0 kmh 29.83 in1010.2 mb 0.01 in0.3 mm 0.00 in0.0 mm 0.01 in0.3 mm
11:20 PM 44.0°F6.7°C 35.9°F2.2°C 73% 7.0 mph WNW11.3 kmh WNW 12.0 mph19.3 kmh 29.83 in1010.2 mb 0.00 in0.0 mm 0.00 in0.0 mm 0.01 in0.3 mm
11:25 PM 44.0°F6.7°C 35.6°F2.0°C 72% 6.0 mph WSW9.7 kmh WSW 13.0 mph20.9 kmh 29.84 in1010.5 mb 0.00 in0.0 mm 0.00 in0.0 mm 0.01 in0.3 mm
11:30 PM 43.9°F6.6°C 35.8°F2.1°C 73% 2.0 mph WSW3.2 kmh WSW 13.0 mph20.9 kmh 29.84 in1010.5 mb 0.00 in0.0 mm 0.00 in0.0 mm 0.01 in0.3 mm
11:35 PM 43.8°F6.6°C 35.7°F2.1°C 73% 6.0 mph W9.7 kmh W 10.0 mph16.1 kmh 29.84 in1010.5 mb 0.00 in0.0 mm 0.00 in0.0 mm 0.01 in0.3 mm
11:40 PM 43.8°F6.6°C 35.7°F2.1°C 73% 3.0 mph WSW4.8 kmh WSW 10.0 mph16.1 kmh 29.85 in1010.8 mb 0.00 in0.0 mm 0.00 in0.0 mm 0.01 in0.3 mm
11:45 PM 43.8°F6.6°C 35.7°F2.1°C 73% 2.0 mph W3.2 kmh W 10.0 mph16.1 kmh 29.85 in1010.8 mb 0.00 in0.0 mm 0.00 in0.0 mm 0.01 in0.3 mm
11:50 PM 43.7°F6.5°C 35.6°F2.0°C 73% Calm Calm 7.0 mph11.3 kmh 29.85 in1010.8 mb 0.00 in0.0 mm 0.00 in0.0 mm 0.01 in0.3 mm
11:55 PM 43.6°F6.4°C 35.9°F2.2°C 74% 1.0 mph WSW1.6 kmh WSW 7.0 mph11.3 kmh 29.85 in1010.8 mb 0.00 in0.0 mm 0.00 in0.0 mm 0.01 in0.3 mm